createdAt,value
2023-04-26T00:00:58.033Z,26.28
2023-04-26T00:01:58.039Z,26.30
2023-04-26T00:02:58.105Z,26.28
2023-04-26T00:03:58.275Z,26.27
2023-04-26T00:04:58.178Z,26.31
2023-04-26T00:05:58.030Z,26.28
2023-04-26T00:06:57.975Z,26.28
2023-04-26T00:07:57.954Z,26.30
2023-04-26T00:08:57.974Z,26.26
2023-04-26T00:09:57.956Z,26.28
2023-04-26T00:10:57.957Z,26.28
2023-04-26T00:11:57.926Z,26.28
2023-04-26T00:12:57.920Z,26.28
2023-04-26T00:13:57.925Z,26.30
2023-04-26T00:14:57.894Z,26.30
2023-04-26T00:15:57.944Z,26.28
2023-04-26T00:16:57.867Z,26.30
2023-04-26T00:17:57.875Z,26.30
2023-04-26T00:18:57.824Z,26.28
2023-04-26T00:19:57.791Z,26.30
2023-04-26T00:20:57.774Z,26.30
2023-04-26T00:21:57.765Z,26.30
2023-04-26T00:22:57.733Z,26.28
2023-04-26T00:23:57.695Z,26.30
2023-04-26T00:24:57.677Z,26.30
2023-04-26T00:26:12.197Z,26.31
2023-04-26T00:26:57.816Z,26.31
2023-04-26T00:27:57.885Z,26.30
2023-04-26T00:28:57.921Z,26.31
2023-04-26T00:29:57.952Z,26.30
2023-04-26T00:30:58.130Z,26.31
2023-04-26T00:31:58.035Z,26.31
2023-04-26T00:32:58.019Z,26.30
2023-04-26T00:33:58.025Z,26.31
2023-04-26T00:34:57.974Z,26.30
2023-04-26T00:35:57.965Z,26.28
2023-04-26T00:36:57.944Z,26.33
2023-04-26T00:37:57.922Z,26.31
2023-04-26T00:38:57.907Z,26.33
2023-04-26T00:39:57.866Z,26.30
2023-04-26T00:40:57.858Z,26.34
2023-04-26T00:41:57.825Z,26.30
2023-04-26T00:42:57.804Z,26.28
2023-04-26T00:43:57.804Z,26.31
2023-04-26T00:44:57.935Z,26.30
2023-04-26T00:45:57.782Z,26.31
2023-04-26T00:46:57.719Z,26.31
2023-04-26T00:47:57.750Z,26.31
2023-04-26T00:48:57.680Z,26.28
2023-04-26T00:49:57.645Z,26.31
2023-04-26T00:50:57.628Z,26.30
2023-04-26T00:51:57.613Z,26.30
2023-04-26T00:52:57.580Z,26.31
2023-04-26T00:53:57.577Z,26.31
2023-04-26T00:54:57.550Z,26.30
2023-04-26T00:55:57.562Z,26.28
2023-04-26T00:56:57.524Z,26.31
2023-04-26T00:57:57.490Z,26.33
2023-04-26T00:58:57.456Z,26.31
2023-04-26T00:59:57.453Z,26.30
2023-04-26T01:00:57.475Z,26.30
2023-04-26T01:01:57.435Z,26.27
2023-04-26T01:02:57.525Z,26.28
2023-04-26T01:03:57.557Z,26.31
2023-04-26T01:04:57.315Z,26.30
2023-04-26T01:05:57.294Z,26.31
2023-04-26T01:06:57.266Z,26.31
2023-04-26T01:07:57.250Z,26.33
2023-04-26T01:08:57.231Z,26.33
2023-04-26T01:09:57.195Z,26.31
2023-04-26T01:10:57.164Z,26.31
2023-04-26T01:11:57.163Z,26.31
2023-04-26T01:12:57.125Z,26.33
2023-04-26T01:13:57.100Z,26.30
2023-04-26T01:14:57.100Z,26.33
2023-04-26T01:15:57.078Z,26.31
2023-04-26T01:16:57.142Z,26.33
2023-04-26T01:17:57.049Z,26.31
2023-04-26T01:18:57.010Z,26.33
2023-04-26T01:19:56.984Z,26.33
2023-04-26T01:20:56.956Z,26.33
2023-04-26T01:21:56.955Z,26.30
2023-04-26T01:22:56.929Z,26.33
2023-04-26T01:23:56.888Z,26.30
2023-04-26T01:24:56.845Z,26.31
2023-04-26T01:25:56.830Z,26.31
2023-04-26T01:26:56.833Z,26.31
2023-04-26T01:27:56.779Z,26.31
2023-04-26T01:28:56.767Z,26.31
2023-04-26T01:29:56.731Z,26.33
2023-04-26T01:30:56.767Z,26.33
2023-04-26T01:31:56.722Z,26.31
2023-04-26T01:32:56.699Z,26.31
2023-04-26T01:33:56.640Z,26.31
2023-04-26T01:34:56.620Z,26.33
2023-04-26T01:35:56.605Z,26.33
2023-04-26T01:36:56.570Z,26.31
2023-04-26T01:37:56.572Z,26.31
2023-04-26T01:38:56.544Z,26.31
2023-04-26T01:39:56.524Z,26.31
2023-04-26T01:40:56.501Z,26.31
2023-04-26T01:41:56.490Z,26.34
2023-04-26T01:42:56.480Z,26.33
2023-04-26T01:43:56.436Z,26.34
2023-04-26T01:44:56.406Z,26.31
2023-04-26T01:45:56.420Z,26.33
2023-04-26T01:46:56.345Z,26.31
2023-04-26T01:47:56.417Z,26.33
2023-04-26T01:48:56.315Z,26.33
2023-04-26T01:49:56.281Z,26.31
2023-04-26T01:50:56.253Z,26.34
2023-04-26T01:51:56.297Z,26.30
2023-04-26T01:52:56.213Z,26.34
2023-04-26T01:53:56.188Z,26.31
2023-04-26T01:54:56.154Z,26.31
2023-04-26T01:55:56.148Z,26.33
2023-04-26T01:56:56.119Z,26.31
2023-04-26T01:57:56.096Z,26.33
2023-04-26T01:58:56.072Z,26.30
2023-04-26T01:59:56.093Z,26.30
2023-04-26T02:00:56.043Z,26.31
2023-04-26T02:01:55.992Z,26.33
2023-04-26T02:02:56.021Z,26.34
2023-04-26T02:03:55.965Z,26.31
2023-04-26T02:04:55.985Z,26.35
2023-04-26T02:05:55.904Z,26.33
2023-04-26T02:06:55.905Z,26.37
2023-04-26T02:07:55.865Z,26.33
2023-04-26T02:08:56.112Z,26.34
2023-04-26T02:09:55.844Z,26.31
2023-04-26T02:10:55.827Z,26.33
2023-04-26T02:11:55.846Z,26.33
2023-04-26T02:12:55.837Z,26.33
2023-04-26T02:13:55.836Z,26.34
2023-04-26T02:14:55.954Z,26.34
2023-04-26T02:15:55.899Z,26.34
2023-04-26T02:16:55.817Z,26.33
2023-04-26T02:17:55.914Z,26.33
2023-04-26T02:18:55.802Z,26.37
2023-04-26T02:19:55.755Z,26.33
2023-04-26T02:20:55.744Z,26.33
2023-04-26T02:21:55.820Z,26.34
2023-04-26T02:22:55.713Z,26.34
2023-04-26T02:23:55.692Z,26.34
2023-04-26T02:24:55.660Z,26.33
2023-04-26T02:25:55.632Z,26.34
2023-04-26T02:26:55.611Z,26.34
2023-04-26T02:27:55.587Z,26.33
2023-04-26T02:28:55.601Z,26.37
2023-04-26T02:29:55.585Z,26.33
2023-04-26T02:30:55.514Z,26.33
2023-04-26T02:31:55.496Z,26.33
2023-04-26T02:32:55.453Z,26.35
2023-04-26T02:33:55.433Z,26.33
2023-04-26T02:34:55.401Z,26.34
2023-04-26T02:35:55.378Z,26.35
2023-04-26T02:36:55.349Z,26.31
2023-04-26T02:37:55.345Z,26.33
2023-04-26T02:38:55.340Z,26.33
2023-04-26T02:39:55.286Z,26.31
2023-04-26T02:40:55.262Z,26.30
2023-04-26T02:41:55.238Z,26.30
2023-04-26T02:42:55.202Z,26.27
2023-04-26T02:43:55.191Z,26.23
2023-04-26T02:44:55.151Z,26.17
2023-04-26T02:45:55.130Z,26.17
2023-04-26T02:46:55.133Z,26.14
2023-04-26T02:47:55.153Z,26.07
2023-04-26T02:48:55.208Z,26.07
2023-04-26T02:49:55.052Z,26.03
2023-04-26T02:50:55.024Z,26.00
2023-04-26T02:51:55.018Z,26.01
2023-04-26T02:52:54.981Z,26.00
2023-04-26T02:53:54.962Z,25.99
2023-04-26T02:54:54.929Z,25.97
2023-04-26T02:55:54.907Z,25.96
2023-04-26T02:56:54.889Z,25.95
2023-04-26T02:57:54.899Z,25.96
2023-04-26T02:58:54.873Z,25.95
2023-04-26T02:59:54.814Z,25.92
2023-04-26T03:00:54.898Z,25.90
2023-04-26T03:01:54.860Z,25.86
2023-04-26T03:02:54.946Z,25.85
2023-04-26T03:03:54.873Z,25.83
2023-04-26T03:04:54.734Z,25.79
2023-04-26T03:05:54.747Z,25.78
2023-04-26T03:06:54.722Z,25.76
2023-04-26T03:07:54.736Z,25.70
2023-04-26T03:08:54.949Z,25.70
2023-04-26T03:09:54.740Z,25.62
2023-04-26T03:10:54.704Z,25.61
2023-04-26T03:11:54.687Z,25.55
2023-04-26T03:12:54.717Z,25.58
2023-04-26T03:13:54.664Z,25.53
2023-04-26T03:14:54.645Z,25.51
2023-04-26T03:15:54.628Z,25.51
2023-04-26T03:16:54.665Z,25.49
2023-04-26T03:17:54.673Z,25.48
2023-04-26T03:18:54.894Z,25.44
2023-04-26T03:19:54.587Z,25.48
2023-04-26T03:20:54.579Z,25.46
2023-04-26T03:21:54.550Z,25.45
2023-04-26T03:22:54.525Z,25.45
2023-04-26T03:23:54.605Z,25.46
2023-04-26T03:24:54.540Z,25.38
2023-04-26T03:25:54.590Z,25.37
2023-04-26T03:26:54.470Z,25.41
2023-04-26T03:27:54.471Z,25.32
2023-04-26T03:28:54.712Z,25.27
2023-04-26T03:29:54.430Z,25.23
2023-04-26T03:30:54.411Z,25.20
2023-04-26T03:31:54.424Z,25.15
2023-04-26T03:32:54.434Z,25.14
2023-04-26T03:33:54.359Z,25.10
2023-04-26T03:34:54.392Z,25.04
2023-04-26T03:35:54.345Z,24.97
2023-04-26T03:36:54.313Z,24.96
2023-04-26T03:37:55.395Z,24.90
2023-04-26T03:38:54.436Z,24.87
2023-04-26T03:39:54.259Z,24.87
2023-04-26T03:40:54.237Z,24.83
2023-04-26T03:41:54.236Z,24.84
2023-04-26T03:42:54.218Z,24.86
2023-04-26T03:43:54.263Z,24.83
2023-04-26T03:44:54.236Z,24.82
2023-04-26T03:45:54.165Z,24.79
2023-04-26T03:46:54.142Z,24.76
2023-04-26T03:47:54.189Z,24.77
2023-04-26T03:48:54.411Z,24.79
2023-04-26T03:49:54.101Z,24.77
2023-04-26T03:50:54.085Z,24.77
2023-04-26T03:51:54.058Z,24.77
2023-04-26T03:52:54.836Z,24.79
2023-04-26T03:53:54.050Z,24.77
2023-04-26T03:54:53.984Z,24.70
2023-04-26T03:55:53.974Z,24.65
2023-04-26T03:56:53.963Z,24.63
2023-04-26T03:57:53.943Z,24.52
2023-04-26T03:58:54.202Z,24.48
2023-04-26T03:59:54.026Z,24.40
2023-04-26T04:00:54.100Z,24.42
2023-04-26T04:01:54.095Z,24.38
2023-04-26T04:02:54.295Z,24.35
2023-04-26T04:03:54.394Z,24.31
2023-04-26T04:04:54.391Z,24.31
2023-04-26T04:05:54.283Z,24.28
2023-04-26T04:06:54.313Z,24.28
2023-04-26T04:07:54.360Z,24.25
2023-04-26T04:08:54.763Z,24.22
2023-04-26T04:09:54.431Z,24.22
2023-04-26T04:10:54.360Z,24.18
2023-04-26T04:11:54.353Z,24.18
2023-04-26T04:12:54.328Z,24.12
2023-04-26T04:13:54.325Z,24.11
2023-04-26T04:14:54.296Z,24.12
2023-04-26T04:15:54.381Z,24.10
2023-04-26T04:16:54.270Z,24.12
2023-04-26T04:17:54.312Z,24.10
2023-04-26T04:18:54.409Z,24.07
2023-04-26T04:19:54.240Z,24.07
2023-04-26T04:20:54.214Z,24.11
2023-04-26T04:21:54.201Z,24.12
2023-04-26T04:22:54.164Z,24.17
2023-04-26T04:23:54.142Z,24.21
2023-04-26T04:24:54.132Z,24.27
2023-04-26T04:25:54.137Z,24.31
2023-04-26T04:26:54.092Z,24.32
2023-04-26T04:27:54.092Z,24.36
2023-04-26T04:28:54.329Z,24.35
2023-04-26T04:29:54.153Z,24.38
2023-04-26T04:30:54.237Z,24.36
2023-04-26T04:31:54.267Z,24.34
2023-04-26T04:32:54.375Z,24.34
2023-04-26T04:33:54.273Z,24.31
2023-04-26T04:34:54.292Z,24.32
2023-04-26T04:35:54.234Z,24.27
2023-04-26T04:36:54.212Z,24.28
2023-04-26T04:37:54.187Z,24.25
2023-04-26T04:38:54.558Z,24.21
2023-04-26T04:39:54.165Z,24.14
2023-04-26T04:40:54.131Z,24.14
2023-04-26T04:41:54.130Z,24.11
2023-04-26T04:42:54.155Z,24.10
2023-04-26T04:43:54.190Z,24.08
2023-04-26T04:44:54.226Z,24.04
2023-04-26T04:45:54.273Z,24.00
2023-04-26T04:46:54.348Z,23.97
2023-04-26T04:47:54.459Z,23.96
2023-04-26T04:48:54.704Z,23.96
2023-04-26T04:49:54.516Z,23.97
2023-04-26T04:50:54.490Z,23.93
2023-04-26T04:51:54.482Z,23.91
2023-04-26T04:52:54.463Z,23.90
2023-04-26T04:53:54.464Z,23.88
2023-04-26T04:54:54.450Z,23.96
2023-04-26T04:55:54.428Z,24.07
2023-04-26T04:56:54.417Z,24.10
2023-04-26T04:57:54.404Z,24.12
2023-04-26T04:58:54.551Z,24.17
2023-04-26T04:59:54.404Z,24.22
2023-04-26T05:00:54.479Z,24.24
2023-04-26T05:01:54.549Z,24.24
2023-04-26T05:02:54.697Z,24.27
2023-04-26T05:03:54.869Z,24.29
2023-04-26T05:04:54.691Z,24.27
2023-04-26T05:05:54.690Z,24.25
2023-04-26T05:06:54.729Z,24.21
2023-04-26T05:07:54.736Z,24.18
2023-04-26T05:08:54.721Z,24.14
2023-04-26T05:09:54.719Z,24.15
2023-04-26T05:10:54.698Z,24.11
2023-04-26T05:11:54.670Z,24.10
2023-04-26T05:12:54.678Z,24.10
2023-04-26T05:13:54.839Z,24.05
2023-04-26T05:14:54.672Z,24.01
2023-04-26T05:15:54.670Z,23.97
2023-04-26T05:16:54.820Z,23.97
2023-04-26T05:17:54.706Z,23.96
2023-04-26T05:18:54.759Z,23.91
2023-04-26T05:19:54.814Z,23.91
2023-04-26T05:20:54.939Z,23.87
2023-04-26T05:21:54.873Z,23.84
2023-04-26T05:22:54.920Z,23.81
2023-04-26T05:23:55.281Z,23.80
2023-04-26T05:24:55.072Z,23.81
2023-04-26T05:25:55.098Z,23.77
2023-04-26T05:26:55.169Z,23.80
2023-04-26T05:27:55.205Z,23.81
2023-04-26T05:28:55.308Z,23.84
2023-04-26T05:29:55.825Z,23.91
2023-04-26T05:30:55.485Z,23.93
2023-04-26T05:31:55.512Z,23.99
2023-04-26T05:32:55.557Z,24.03
2023-04-26T05:33:55.421Z,24.07
2023-04-26T05:34:55.425Z,24.11
2023-04-26T05:35:55.420Z,24.15
2023-04-26T05:36:55.397Z,24.17
2023-04-26T05:37:55.392Z,24.18
2023-04-26T05:38:55.402Z,24.22
2023-04-26T05:39:55.406Z,24.21
2023-04-26T05:40:55.393Z,24.25
2023-04-26T05:41:56.261Z,24.25
2023-04-26T05:42:55.554Z,24.29
2023-04-26T05:43:55.638Z,24.29
2023-04-26T05:44:55.636Z,24.32
2023-04-26T05:45:55.812Z,24.29
2023-04-26T05:46:56.340Z,24.34
2023-04-26T05:47:55.862Z,24.34
2023-04-26T05:48:55.837Z,24.34
2023-04-26T05:49:55.894Z,24.31
2023-04-26T05:50:55.991Z,24.31
2023-04-26T05:51:56.005Z,24.28
2023-04-26T05:52:56.008Z,24.24
2023-04-26T05:53:56.048Z,24.25
2023-04-26T05:54:55.939Z,24.25
2023-04-26T05:55:55.941Z,24.27
2023-04-26T05:56:57.835Z,24.28
2023-04-26T05:57:55.932Z,24.29
2023-04-26T05:58:55.902Z,24.28
2023-04-26T05:59:55.872Z,24.34
2023-04-26T06:00:55.874Z,24.32
2023-04-26T06:01:55.857Z,24.35
2023-04-26T06:02:55.936Z,24.35
2023-04-26T06:03:59.212Z,24.38
2023-04-26T06:04:56.103Z,24.39
2023-04-26T06:05:55.921Z,24.42
2023-04-26T06:06:55.846Z,24.46
2023-04-26T06:07:55.777Z,24.51
2023-04-26T06:08:55.876Z,24.49
2023-04-26T06:09:55.750Z,24.51
2023-04-26T06:10:55.758Z,24.54
2023-04-26T06:11:55.741Z,24.51
2023-04-26T06:12:55.736Z,24.52
2023-04-26T06:13:55.708Z,24.55
2023-04-26T06:14:55.689Z,24.55
2023-04-26T06:15:55.745Z,24.58
2023-04-26T06:16:55.726Z,24.60
2023-04-26T06:17:55.654Z,24.58
2023-04-26T06:18:55.608Z,24.63
2023-04-26T06:19:55.838Z,24.65
2023-04-26T06:20:55.563Z,24.65
2023-04-26T06:21:55.689Z,24.67
2023-04-26T06:22:55.533Z,24.69
2023-04-26T06:23:55.667Z,24.75
2023-04-26T06:24:55.777Z,24.76
2023-04-26T06:25:55.537Z,24.76
2023-04-26T06:26:55.596Z,24.77
2023-04-26T06:27:55.639Z,24.79
2023-04-26T06:28:55.685Z,24.80
2023-04-26T06:29:55.910Z,24.82
2023-04-26T06:30:55.868Z,24.83
2023-04-26T06:31:56.380Z,24.83
2023-04-26T06:32:55.841Z,24.86
2023-04-26T06:33:56.006Z,24.84
2023-04-26T06:34:55.942Z,24.87
2023-04-26T06:35:55.940Z,24.93
2023-04-26T06:36:55.996Z,25.02
2023-04-26T06:37:55.971Z,25.04
2023-04-26T06:38:55.966Z,25.10
2023-04-26T06:39:55.970Z,25.09
2023-04-26T06:40:55.949Z,25.14
2023-04-26T06:41:55.906Z,25.15
2023-04-26T06:42:55.914Z,25.15
2023-04-26T06:43:55.881Z,25.17
2023-04-26T06:44:56.896Z,25.13
2023-04-26T06:45:55.951Z,25.14
2023-04-26T06:46:55.840Z,25.06
2023-04-26T06:47:55.873Z,25.06
2023-04-26T06:48:55.827Z,25.15
2023-04-26T06:49:55.802Z,25.24
2023-04-26T06:50:55.830Z,25.25
2023-04-26T06:51:55.757Z,25.24
2023-04-26T06:52:55.735Z,25.23
2023-04-26T06:53:55.724Z,25.25
2023-04-26T06:54:57.338Z,25.23
2023-04-26T06:55:55.696Z,25.34
2023-04-26T06:56:55.662Z,25.45
2023-04-26T06:57:55.654Z,25.49
2023-04-26T06:58:55.632Z,25.49
2023-04-26T06:59:55.626Z,25.53
2023-04-26T07:00:55.602Z,25.53
2023-04-26T07:01:55.644Z,25.53
2023-04-26T07:02:55.688Z,25.53
2023-04-26T07:03:56.059Z,25.57
2023-04-26T07:04:55.761Z,25.61
2023-04-26T07:05:55.576Z,25.61
2023-04-26T07:06:55.513Z,25.61
2023-04-26T07:07:55.533Z,25.59
2023-04-26T07:08:55.564Z,25.68
2023-04-26T07:09:55.471Z,25.65
2023-04-26T07:10:55.595Z,25.69
2023-04-26T07:11:55.452Z,25.66
2023-04-26T07:12:55.488Z,25.66
2023-04-26T07:13:55.622Z,25.66
2023-04-26T07:14:55.452Z,25.75
2023-04-26T07:15:55.492Z,25.83
2023-04-26T07:16:55.382Z,25.86
2023-04-26T07:17:55.460Z,25.82
2023-04-26T07:18:55.349Z,25.82
2023-04-26T07:19:56.268Z,25.79
2023-04-26T07:20:55.325Z,25.79
2023-04-26T07:21:55.290Z,25.78
2023-04-26T07:22:55.294Z,25.76
2023-04-26T07:23:55.680Z,25.82
2023-04-26T07:24:55.259Z,25.85
2023-04-26T07:25:56.349Z,25.89
2023-04-26T07:26:55.264Z,25.87
2023-04-26T07:27:55.268Z,25.86
2023-04-26T07:28:55.262Z,25.83
2023-04-26T07:29:55.269Z,25.87
2023-04-26T07:30:55.313Z,25.80
2023-04-26T07:31:55.310Z,25.80
2023-04-26T07:32:55.374Z,25.78
2023-04-26T07:33:55.697Z,25.80
2023-04-26T07:34:55.348Z,25.79
2023-04-26T07:35:55.404Z,25.79
2023-04-26T07:36:55.400Z,25.78
2023-04-26T07:37:55.417Z,25.78
2023-04-26T07:38:55.425Z,25.76
2023-04-26T07:39:55.431Z,25.75
2023-04-26T07:40:55.567Z,25.75
2023-04-26T07:41:55.620Z,25.75
2023-04-26T07:42:55.459Z,25.75
2023-04-26T07:43:55.533Z,25.72
2023-04-26T07:44:55.485Z,25.68
2023-04-26T07:45:55.555Z,25.66
2023-04-26T07:46:55.387Z,25.66
2023-04-26T07:47:55.422Z,25.64
2023-04-26T07:48:55.346Z,25.69
2023-04-26T07:49:55.339Z,25.68
2023-04-26T07:50:55.396Z,25.65
2023-04-26T07:51:55.335Z,25.62
2023-04-26T07:52:55.346Z,25.58
2023-04-26T07:53:55.585Z,25.57
2023-04-26T07:54:55.262Z,25.52
2023-04-26T07:55:55.870Z,25.52
2023-04-26T07:56:55.273Z,25.51
2023-04-26T07:57:55.199Z,25.49
2023-04-26T07:58:55.205Z,25.49
2023-04-26T07:59:55.154Z,25.45
2023-04-26T08:00:55.223Z,25.45
2023-04-26T08:01:55.156Z,25.45
2023-04-26T08:02:55.359Z,25.45
2023-04-26T08:03:55.644Z,25.41
2023-04-26T08:04:55.364Z,25.41
2023-04-26T08:05:55.545Z,25.38
2023-04-26T08:06:55.123Z,25.37
2023-04-26T08:07:55.171Z,25.31
2023-04-26T08:08:55.891Z,25.32
2023-04-26T08:09:55.147Z,25.34
2023-04-26T08:10:55.188Z,25.32
2023-04-26T08:11:55.162Z,25.34
2023-04-26T08:12:55.142Z,25.35
2023-04-26T08:13:55.272Z,25.34
2023-04-26T08:14:55.161Z,25.37
2023-04-26T08:15:55.166Z,25.44
2023-04-26T08:16:55.275Z,25.44
2023-04-26T08:17:55.209Z,25.42
2023-04-26T08:18:55.170Z,25.40
2023-04-26T08:19:55.190Z,25.34
2023-04-26T08:20:55.211Z,25.24
2023-04-26T08:21:55.156Z,25.23
2023-04-26T08:22:55.157Z,25.18
2023-04-26T08:23:55.322Z,25.10
2023-04-26T08:24:55.184Z,25.10
2023-04-26T08:25:55.131Z,25.14
2023-04-26T08:26:55.164Z,25.18
2023-04-26T08:27:55.095Z,25.41
2023-04-26T08:28:55.063Z,25.65
2023-04-26T08:29:55.065Z,25.76
2023-04-26T08:30:55.105Z,25.72
2023-04-26T08:31:55.078Z,25.64
2023-04-26T08:32:55.915Z,25.59
2023-04-26T08:33:55.149Z,25.57
2023-04-26T08:34:54.966Z,25.58
2023-04-26T08:35:54.996Z,25.59
2023-04-26T08:36:54.939Z,25.61
2023-04-26T08:37:54.925Z,25.59
2023-04-26T08:38:54.893Z,25.61
2023-04-26T08:39:54.874Z,25.64
2023-04-26T08:40:54.859Z,25.64
2023-04-26T08:41:54.811Z,25.66
2023-04-26T08:42:54.804Z,25.66
2023-04-26T08:43:55.030Z,25.65
2023-04-26T08:44:54.793Z,25.65
2023-04-26T08:45:55.050Z,25.62
2023-04-26T08:46:54.871Z,25.65
2023-04-26T08:47:54.908Z,25.64
2023-04-26T08:48:54.969Z,25.59
2023-04-26T08:49:54.968Z,25.68
2023-04-26T08:50:55.007Z,25.69
2023-04-26T08:51:55.029Z,25.65
2023-04-26T08:52:55.006Z,25.58
2023-04-26T08:53:55.161Z,25.52
2023-04-26T08:54:54.994Z,25.51
2023-04-26T08:55:55.013Z,25.46
2023-04-26T08:56:55.005Z,25.42
2023-04-26T08:57:55.016Z,25.40
2023-04-26T08:58:55.045Z,25.35
2023-04-26T08:59:55.010Z,25.35
2023-04-26T09:00:55.045Z,25.35
2023-04-26T09:01:55.104Z,25.27
2023-04-26T09:02:55.170Z,25.25
2023-04-26T09:03:55.365Z,25.23
2023-04-26T09:04:55.220Z,25.23
2023-04-26T09:05:55.126Z,25.25
2023-04-26T09:06:55.169Z,25.25
2023-04-26T09:07:55.134Z,25.25
2023-04-26T09:08:55.124Z,25.25
2023-04-26T09:09:55.102Z,25.27
2023-04-26T09:10:55.134Z,25.30
2023-04-26T09:11:55.098Z,25.30
2023-04-26T09:12:55.070Z,25.30
2023-04-26T09:13:55.098Z,25.30
2023-04-26T09:14:55.037Z,25.32
2023-04-26T09:15:55.098Z,25.35
2023-04-26T09:16:55.034Z,25.40
2023-04-26T09:17:55.108Z,25.41
2023-04-26T09:18:55.132Z,25.42
2023-04-26T09:19:55.033Z,25.46
2023-04-26T09:20:54.980Z,25.48
2023-04-26T09:21:54.973Z,25.49
2023-04-26T09:22:54.968Z,25.51
2023-04-26T09:23:54.951Z,25.49
2023-04-26T09:24:54.918Z,25.49
2023-04-26T09:25:54.938Z,25.52
2023-04-26T09:26:54.907Z,25.52
2023-04-26T09:27:54.896Z,25.52
2023-04-26T09:28:55.083Z,25.53
2023-04-26T09:29:54.895Z,25.53
2023-04-26T09:30:55.447Z,25.49
2023-04-26T09:31:55.034Z,25.49
2023-04-26T09:32:54.855Z,25.48
2023-04-26T09:33:54.798Z,25.52
2023-04-26T09:34:54.836Z,25.53
2023-04-26T09:35:54.812Z,25.51
2023-04-26T09:36:54.766Z,25.52
2023-04-26T09:37:59.332Z,25.49
2023-04-26T09:38:55.755Z,25.51
2023-04-26T09:39:54.741Z,25.49
2023-04-26T09:40:54.836Z,25.49
2023-04-26T09:41:54.693Z,25.48
2023-04-26T09:42:54.684Z,25.51
2023-04-26T09:43:54.639Z,25.58
2023-04-26T09:44:54.628Z,25.65
2023-04-26T09:45:54.657Z,25.69
2023-04-26T09:46:54.585Z,25.76
2023-04-26T09:47:54.604Z,25.82
2023-04-26T09:48:54.576Z,25.83
2023-04-26T09:49:54.544Z,25.92
2023-04-26T09:50:54.693Z,25.96
2023-04-26T09:51:54.480Z,25.99
2023-04-26T09:52:54.495Z,25.99
2023-04-26T09:53:56.656Z,25.99
2023-04-26T09:54:54.454Z,26.00
2023-04-26T09:55:54.418Z,26.00
2023-04-26T09:56:54.355Z,26.04
2023-04-26T09:57:54.322Z,26.06
2023-04-26T09:58:54.738Z,26.08
2023-04-26T09:59:55.617Z,26.06
2023-04-26T10:00:54.432Z,26.08
2023-04-26T10:01:54.341Z,26.07
2023-04-26T10:02:54.297Z,26.06
2023-04-26T10:03:54.305Z,26.10
2023-04-26T10:04:54.248Z,26.13
2023-04-26T10:05:54.452Z,26.12
2023-04-26T10:06:54.026Z,26.12
2023-04-26T10:07:53.994Z,26.14
2023-04-26T10:08:54.408Z,26.14
2023-04-26T10:09:53.929Z,26.16
2023-04-26T10:10:53.928Z,26.16
2023-04-26T10:11:53.899Z,26.23
2023-04-26T10:12:53.844Z,26.23
2023-04-26T10:13:53.878Z,26.26
2023-04-26T10:14:53.954Z,26.23
2023-04-26T10:15:53.818Z,26.26
2023-04-26T10:16:53.854Z,26.27
2023-04-26T10:17:53.864Z,26.30
2023-04-26T10:18:53.984Z,26.31
2023-04-26T10:19:54.422Z,26.34
2023-04-26T10:20:53.851Z,26.35
2023-04-26T10:21:53.848Z,26.37
2023-04-26T10:22:53.978Z,26.38
2023-04-26T10:23:54.472Z,26.37
2023-04-26T10:24:53.850Z,26.41
2023-04-26T10:25:53.846Z,26.40
2023-04-26T10:26:53.873Z,26.41
2023-04-26T10:27:53.899Z,26.44
2023-04-26T10:28:58.298Z,26.45
2023-04-26T10:29:54.874Z,26.44
2023-04-26T10:30:53.915Z,26.47
2023-04-26T10:31:53.931Z,26.45
2023-04-26T10:32:53.857Z,26.47
2023-04-26T10:33:53.763Z,26.51
2023-04-26T10:34:53.707Z,26.51
2023-04-26T10:35:53.679Z,26.54
2023-04-26T10:36:53.642Z,26.54
2023-04-26T10:37:53.634Z,26.54
2023-04-26T10:38:53.873Z,26.56
2023-04-26T10:39:53.544Z,26.55
2023-04-26T10:40:55.289Z,26.56
2023-04-26T10:41:53.485Z,26.55
2023-04-26T10:42:53.434Z,26.54
2023-04-26T10:43:53.667Z,26.54
2023-04-26T10:44:53.963Z,26.51
2023-04-26T10:45:53.377Z,26.50
2023-04-26T10:46:53.323Z,26.50
2023-04-26T10:47:53.380Z,26.51
2023-04-26T10:48:53.663Z,26.47
2023-04-26T10:49:53.400Z,26.45
2023-04-26T10:50:53.498Z,26.44
2023-04-26T10:51:53.464Z,26.47
2023-04-26T10:52:53.465Z,26.50
2023-04-26T10:53:53.918Z,26.52
2023-04-26T10:54:53.688Z,26.55
2023-04-26T10:55:53.634Z,26.55
2023-04-26T10:56:54.457Z,26.56
2023-04-26T10:57:53.650Z,26.61
2023-04-26T10:58:53.733Z,26.59
2023-04-26T11:00:53.883Z,26.61
2023-04-26T11:01:53.835Z,26.62
2023-04-26T11:02:53.939Z,26.64
2023-04-26T11:03:54.083Z,26.62
2023-04-26T11:04:54.550Z,26.65
2023-04-26T11:05:53.761Z,26.65
2023-04-26T11:06:53.784Z,26.67
2023-04-26T11:07:54.446Z,26.70
2023-04-26T11:08:53.816Z,26.74
2023-04-26T11:09:53.632Z,26.72
2023-04-26T11:10:53.647Z,26.74
2023-04-26T11:11:53.977Z,26.70
2023-04-26T11:12:53.708Z,26.72
2023-04-26T11:13:53.537Z,26.68
2023-04-26T11:14:53.567Z,26.72
2023-04-26T11:15:53.699Z,26.71
2023-04-26T11:16:53.643Z,26.72
2023-04-26T11:17:53.687Z,26.70
2023-04-26T11:18:53.882Z,26.74
2023-04-26T11:19:53.753Z,26.74
2023-04-26T11:20:55.489Z,26.75
2023-04-26T11:21:54.594Z,26.72
2023-04-26T11:22:53.871Z,26.74
2023-04-26T11:23:53.917Z,26.72
2023-04-26T11:24:53.956Z,26.71
2023-04-26T11:25:53.979Z,26.71
2023-04-26T11:26:54.042Z,26.74
2023-04-26T11:27:54.019Z,26.72
2023-04-26T11:28:54.450Z,26.68
2023-04-26T11:29:54.074Z,26.68
2023-04-26T11:30:54.070Z,26.72
2023-04-26T11:31:54.096Z,26.74
2023-04-26T11:32:53.970Z,26.74
2023-04-26T11:33:53.933Z,26.75
2023-04-26T11:34:53.901Z,26.74
2023-04-26T11:35:53.862Z,26.71
2023-04-26T11:36:53.825Z,26.74
2023-04-26T11:37:53.781Z,26.74
2023-04-26T11:38:53.877Z,26.75
2023-04-26T11:39:53.749Z,26.75
2023-04-26T11:40:53.831Z,26.77
2023-04-26T11:41:53.818Z,26.75
2023-04-26T11:42:53.826Z,26.78
2023-04-26T11:43:53.866Z,26.79
2023-04-26T11:44:53.897Z,26.79
2023-04-26T11:45:53.984Z,26.79
2023-04-26T11:46:53.976Z,26.82
2023-04-26T11:47:54.051Z,26.82
2023-04-26T11:48:54.170Z,26.83
2023-04-26T11:49:54.021Z,26.85
2023-04-26T11:50:54.088Z,26.86
2023-04-26T11:51:54.133Z,26.88
2023-04-26T11:52:54.124Z,26.88
2023-04-26T11:53:54.133Z,26.90
2023-04-26T11:54:54.163Z,26.90
2023-04-26T11:55:54.198Z,26.92
2023-04-26T11:56:54.246Z,26.90
2023-04-26T11:57:54.275Z,26.95
2023-04-26T11:58:54.501Z,26.93
2023-04-26T11:59:54.349Z,26.92
2023-04-26T12:00:54.371Z,26.93
2023-04-26T12:01:54.452Z,26.95
2023-04-26T12:02:54.757Z,26.95
2023-04-26T12:03:54.692Z,26.95
2023-04-26T12:04:54.564Z,26.95
2023-04-26T12:05:54.519Z,26.95
2023-04-26T12:06:54.533Z,26.96
2023-04-26T12:07:54.551Z,26.96
2023-04-26T12:08:54.572Z,26.95
2023-04-26T12:09:54.637Z,26.98
2023-04-26T12:10:54.664Z,26.99
2023-04-26T12:11:54.692Z,26.98
2023-04-26T12:12:54.860Z,26.98
2023-04-26T12:13:54.715Z,26.99
2023-04-26T12:14:54.764Z,26.98
2023-04-26T12:15:54.807Z,26.99
2023-04-26T12:16:54.938Z,26.98
2023-04-26T12:17:54.899Z,26.98
2023-04-26T12:18:54.814Z,26.96
2023-04-26T12:19:54.779Z,26.98
2023-04-26T12:20:54.758Z,26.99
2023-04-26T12:21:54.713Z,26.98
2023-04-26T12:22:54.691Z,27.00
2023-04-26T12:23:54.649Z,26.98
2023-04-26T12:24:54.613Z,27.00
2023-04-26T12:25:54.579Z,27.00
2023-04-26T12:26:55.002Z,27.00
2023-04-26T12:27:54.512Z,26.98
2023-04-26T12:28:54.530Z,26.96
2023-04-26T12:29:54.614Z,26.96
2023-04-26T12:30:54.840Z,26.95
2023-04-26T12:31:54.700Z,26.99
2023-04-26T12:32:59.982Z,26.98
2023-04-26T12:33:55.654Z,26.98
2023-04-26T12:34:54.594Z,26.99
2023-04-26T12:35:54.612Z,26.98
2023-04-26T12:36:54.548Z,27.00
2023-04-26T12:37:54.552Z,27.02
2023-04-26T12:38:54.524Z,26.99
2023-04-26T12:39:54.431Z,27.02
2023-04-26T12:40:54.451Z,27.03
2023-04-26T12:41:54.417Z,27.02
2023-04-26T12:42:54.348Z,27.00
2023-04-26T12:43:54.362Z,27.00
2023-04-26T12:44:54.270Z,27.02
2023-04-26T12:45:54.347Z,27.03
2023-04-26T12:46:54.315Z,27.03
2023-04-26T12:47:54.366Z,27.05
2023-04-26T12:48:54.299Z,27.05
2023-04-26T12:49:54.366Z,27.03
2023-04-26T12:50:54.384Z,27.00
2023-04-26T12:51:54.408Z,27.02
2023-04-26T12:52:54.431Z,27.03
2023-04-26T12:53:54.441Z,27.03